1891 Hurricane NOT_NAMED (1891259N20312)


IBTrACS version v04r00. Visit IBTrACS website for data access.
Please direct all questions to the IBTrACS Q and A forum

Storm track - Intensity - Wind Radii - Intensity Data - Source Data - All data

Summary Information

Storm ID 1891259N20312
Start Sep 15 18Z
Max Intensity 90 kt (Sep 21 00Z), 972 mb (Sep 22 12Z)
End Sep 26 18Z
ATCF IDs ,AL051891
Track status Best track data.

Storm track plot

Map of storm track

Intensity plots

Map of storm track

Radial wind information

No radial wind information for this storm


Position and Intensity Table

BASIN ISO_TIME_________ NATURE LAT LON WMO WIND USA WIND MLC WIND MLC PRES
degrees north degrees east kts kts kts mb
NA 1891-09-15 18:00:00 TS 20.50 -48.00 35
NA 21:00:00 TS 20.70 -48.35 37
NA 1891-09-16 00:00:00 TS 20.26 -47.82 35 35 40
NA 03:00:00 TS 20.33 -47.92 35 45
NA 06:00:00 TS 20.40 -48.02 35 35 50
NA 09:00:00 TS 20.50 -48.20 35 55
NA 12:00:00 TS 20.70 -48.57 35 35 60
NA 15:00:00 TS 20.92 -49.00 35 60
NA 18:00:00 TS 21.17 -49.47 35 35 60
NA 21:00:00 TS 21.43 -49.92 35 62
NA 1891-09-17 00:00:00 TS 21.70 -50.37 35 35 65
NA 03:00:00 TS 21.94 -50.79 35 65
NA 06:00:00 TS 22.17 -51.20 35 35 65
NA 09:00:00 TS 22.40 -51.62 37 65
NA 12:00:00 TS 22.63 -52.03 40 40 65
NA 15:00:00 TS 22.87 -52.42 40 67
NA 18:00:00 TS 23.10 -52.80 40 40 70
NA 21:00:00 TS 23.30 -53.19 42 70
NA 1891-09-18 00:00:00 TS 23.50 -53.57 45 45 70
NA 03:00:00 TS 23.73 -53.92 47 70
NA 06:00:00 TS 23.97 -54.27 50 50 70
NA 09:00:00 TS 24.19 -54.64 52 70
NA 12:00:00 TS 24.43 -55.03 55 55 70
NA 15:00:00 TS 24.69 -55.42 57 70
NA 18:00:00 TS 24.97 -55.83 60 60 70
NA 21:00:00 TS 25.28 -56.28 62 70
NA 1891-09-19 00:00:00 TS 25.60 -56.73 65 65 70
NA 03:00:00 TS 25.92 -57.16 67 72
NA 06:00:00 TS 26.23 -57.57 70 70 75
NA 09:00:00 TS 26.55 -57.96 70 75
NA 12:00:00 TS 26.87 -58.33 70 70 75
NA 15:00:00 TS 27.17 -58.65 72 75
NA 18:00:00 TS 27.50 -59.00 75 75 75
NA 21:00:00 TS 27.93 -59.46 77 75
NA 1891-09-20 00:00:00 TS 28.37 -59.93 80 80 75 983
NA 03:00:00 TS 28.73 -60.29 80 77
NA 06:00:00 TS 29.07 -60.63 80 80 80
NA 09:00:00 TS 29.42 -61.04 82 80
NA 12:00:00 TS 29.73 -61.43 85 85 80
NA 15:00:00 TS 30.00 -61.77 85 82
NA 18:00:00 TS 30.23 -62.07 85 85 85
NA 21:00:00 TS 30.49 -62.34 85 87
NA 1891-09-21 00:00:00 TS 30.73 -62.60 85 85 90
NA 03:00:00 TS 30.97 -62.86 85 90
NA 06:00:00 TS 31.20 -63.10 85 85 90
NA 09:00:00 TS 31.42 -63.34 85 90
NA 12:00:00 TS 31.63 -63.57 85 85 90
NA 15:00:00 TS 31.86 -63.77 85 90
NA 18:00:00 TS 32.07 -63.93 85 85 90
NA 21:00:00 TS 32.24 -64.04 85 87
NA 1891-09-22 00:00:00 TS 32.40 -64.10 85 85 85
NA 03:00:00 TS 32.55 -64.15 85 85
NA 06:00:00 TS 32.70 -64.17 85 85 85
NA 09:00:00 TS 32.82 -64.20 85 85
NA 12:00:00 TS 32.97 -64.17 85 85 85 972
NA 15:00:00 TS 33.19 -64.05 85 85
NA 18:00:00 TS 33.47 -63.83 85 85 85
NA 21:00:00 TS 33.78 -63.55 85 85
NA 1891-09-23 00:00:00 TS 34.13 -63.20 85 85 85
NA 03:00:00 TS 34.51 -62.85 85 85
NA 06:00:00 TS 35.03 -62.35 85 85 85
NA 09:00:00 TS 35.54 -61.76 85 85
NA 12:00:00 TS 36.08 -61.00 85 85 85
NA 15:00:00 TS 36.66 -59.95 85
NA 18:00:00 TS 37.00 -59.10 85 85
NA 21:00:00 TS 37.27 -58.21 85
NA 1891-09-24 00:00:00 TS 37.50 -57.30 85 85
NA 03:00:00 TS 37.71 -56.39 85
NA 06:00:00 TS 37.90 -55.50 85 85
NA 09:00:00 TS 38.08 -54.63 85
NA 12:00:00 TS 38.20 -53.80 85 85
NA 15:00:00 TS 38.22 -53.03 85
NA 18:00:00 TS 38.20 -52.30 85 85
NA 21:00:00 TS 38.20 -51.55 82
NA 1891-09-25 00:00:00 TS 38.21 -51.21 80 80 85
NA 03:00:00 TS 38.32 -50.68 80 82
NA 06:00:00 TS 38.50 -50.01 80 80 80
NA 09:00:00 TS 38.71 -49.25 77 80
NA 12:00:00 TS 38.87 -48.33 75 75 80
NA 15:00:00 TS 39.08 -47.40 70 77
NA 18:00:00 TS 39.16 -46.44 65 65 75
NA 21:00:00 TS 39.19 -45.55 60 70
NA 1891-09-26 00:00:00 TS 39.17 -44.74 55 55 65
NA 03:00:00 TS 39.07 -44.05 47
NA 06:00:00 TS 39.40 -43.30 40 40
NA 09:00:00 TS 39.76 -42.59 40
NA 12:00:00 ET 40.20 -41.80 40 40
NA 15:00:00 ET 40.73 -40.81 40
NA 18:00:00 ET 41.30 -39.70 40 40

Source Information

Agency Information
USA hurdat2-1851-2018-051019.txt:Line=6897:UNNAMED
TOKYO
CMA
HKO
NEWDELHI
REUNION
BOM
NADI
WELLINGTON
DS824
TD9636
TD9635
NEUMANN
MLC

All available IBTrACS Data

SEASON BASIN SUBBASIN ISO_TIME_________ NATURE LAT LON WMO WIND WMO AGENCY DIST2LAND LANDFALL IFLAG USA AGENCY USA ATCF_ID USA LAT USA LON USA STATUS USA WIND USA SSHS MLC LAT MLC LON MLC CLASS MLC WIND MLC PRES STORM SPEED STORM DIR
Year degrees north degrees east kts km km degrees north degrees east kts 1 degrees north degrees east kts mb kts degrees
1891 NA NA 1891-09-15 18:00:00 TS 20.50 -48.00 1766 1751 _____________O -1 20.50 -48.00 TS 35 8 301
1891 NA NA 21:00:00 TS 20.70 -48.35 1759 1749 _____________P -1 20.70 -48.35 TS 37 3 145
1891 NA NA 1891-09-16 00:00:00 TS 20.26 -47.82 35 hurdat_atl 1754 1744 O____________O hurdat_atl AL051891 19.30 -46.50 TS 35 0 20.90 -48.70 TS 40 5 133
1891 NA NA 03:00:00 TS 20.33 -47.92 1749 1749 P____________P AL051891 19.56 -46.80 TS 35 0 21.10 -49.05 TS 45 2 307
1891 NA NA 06:00:00 TS 20.40 -48.02 35 hurdat_atl 1756 1751 O____________O hurdat_atl AL051891 19.80 -47.10 TS 35 0 21.30 -49.40 TS 50 3 303
1891 NA NA 09:00:00 TS 20.50 -48.20 1754 1736 P____________P AL051891 20.00 -47.42 TS 35 0 21.50 -49.75 TS 55 6 300
1891 NA NA 12:00:00 TS 20.70 -48.57 35 hurdat_atl 1734 1716 O____________O hurdat_atl AL051891 20.20 -47.80 TS 35 0 21.70 -50.10 TS 60 9 299
1891 NA NA 15:00:00 TS 20.92 -49.00 1716 1699 P____________P AL051891 20.44 -48.28 TS 35 0 21.90 -50.45 TS 60 10 299
1891 NA NA 18:00:00 TS 21.17 -49.47 35 hurdat_atl 1699 1674 O____________O hurdat_atl AL051891 20.70 -48.80 TS 35 0 22.10 -50.80 TS 60 10 301
1891 NA NA 21:00:00 TS 21.43 -49.92 1674 1637 P____________P AL051891 21.00 -49.31 TS 35 0 22.30 -51.15 TS 62 10 302
1891 NA NA 1891-09-17 00:00:00 TS 21.70 -50.37 35 hurdat_atl 1629 1592 O____________O hurdat_atl AL051891 21.30 -49.80 TS 35 0 22.50 -51.50 HU 65 10 302
1891 NA NA 03:00:00 TS 21.94 -50.79 1592 1557 P____________P AL051891 21.56 -50.26 TS 35 0 22.70 -51.85 HU 65 9 301
1891 NA NA 06:00:00 TS 22.17 -51.20 35 hurdat_atl 1559 1525 O____________O hurdat_atl AL051891 21.80 -50.70 TS 35 0 22.90 -52.20 HU 65 9 301
1891 NA NA 09:00:00 TS 22.40 -51.62 1525 1491 P____________P AL051891 22.05 -51.16 TS 37 0 23.10 -52.55 HU 65 9 301
1891 NA NA 12:00:00 TS 22.63 -52.03 40 hurdat_atl 1491 1458 O____________O hurdat_atl AL051891 22.30 -51.60 TS 40 0 23.30 -52.90 HU 65 9 303
1891 NA NA 15:00:00 TS 22.87 -52.42 1461 1429 P____________P AL051891 22.56 -52.01 TS 40 0 23.50 -53.25 HU 67 8 303
1891 NA NA 18:00:00 TS 23.10 -52.80 40 hurdat_atl 1429 1399 O____________O hurdat_atl AL051891 22.80 -52.40 TS 40 0 23.70 -53.60 HU 70 8 301
1891 NA NA 21:00:00 TS 23.30 -53.19 1399 1374 P____________P AL051891 23.00 -52.81 TS 42 0 23.90 -53.95 HU 70 8 300
1891 NA NA 1891-09-18 00:00:00 TS 23.50 -53.57 45 hurdat_atl 1369 1350 O____________O hurdat_atl AL051891 23.20 -53.20 TS 45 0 24.10 -54.30 HU 70 8 303
1891 NA NA 03:00:00 TS 23.73 -53.92 1350 1331 P____________P AL051891 23.44 -53.55 TS 47 0 24.30 -54.65 HU 70 8 306
1891 NA NA 06:00:00 TS 23.97 -54.27 50 hurdat_atl 1327 1305 O____________O hurdat_atl AL051891 23.70 -53.90 TS 50 0 24.50 -55.00 HU 70 8 305
1891 NA NA 09:00:00 TS 24.19 -54.64 1310 1285 P____________P AL051891 23.94 -54.29 TS 52 0 24.70 -55.36 HU 70 8 304
1891 NA NA 12:00:00 TS 24.43 -55.03 55 hurdat_atl 1285 1261 O____________O hurdat_atl AL051891 24.20 -54.70 TS 55 0 24.90 -55.70 HU 70 9 305
1891 NA NA 15:00:00 TS 24.69 -55.42 1267 1245 P____________P AL051891 24.49 -55.14 TS 57 0 25.08 -56.00 HU 70 9 306
1891 NA NA 18:00:00 TS 24.97 -55.83 60 hurdat_atl 1251 1230 O____________O hurdat_atl AL051891 24.80 -55.60 TS 60 0 25.30 -56.30 HU 70 10 307
1891 NA NA 21:00:00 TS 25.28 -56.28 1230 1212 P____________P AL051891 25.10 -56.10 TS 62 0 25.63 -56.64 HU 70 10 308
1891 NA NA 1891-09-19 00:00:00 TS 25.60 -56.73 65 hurdat_atl 1219 1203 O____________O hurdat_atl AL051891 25.40 -56.60 HU 65 1 26.00 -57.00 HU 70 10 309
1891 NA NA 03:00:00 TS 25.92 -57.16 1203 1197 P____________P AL051891 25.70 -57.07 HU 67 1 26.35 -57.35 HU 72 10 310
1891 NA NA 06:00:00 TS 26.23 -57.57 70 hurdat_atl 1198 1198 O____________O hurdat_atl AL051891 26.00 -57.50 HU 70 1 26.70 -57.70 HU 75 10 311
1891 NA NA 09:00:00 TS 26.55 -57.96 1194 1194 P____________P AL051891 26.30 -57.92 HU 70 1 27.05 -58.06 HU 75 9 313
1891 NA NA 12:00:00 TS 26.87 -58.33 70 hurdat_atl 1209 1202 O____________O hurdat_atl AL051891 26.60 -58.30 HU 70 1 27.40 -58.40 HU 75 9 315
1891 NA NA 15:00:00 TS 27.17 -58.65 1210 1210 P____________P AL051891 26.88 -58.64 HU 72 1 27.74 -58.69 HU 75 9 317
1891 NA NA 18:00:00 TS 27.50 -59.00 75 hurdat_atl 1220 1220 O____________O hurdat_atl AL051891 27.20 -59.00 HU 75 1 28.10 -59.00 HU 75 10 317
1891 NA NA 21:00:00 TS 27.93 -59.46 1230 1230 P____________P AL051891 27.64 -59.50 HU 77 1 28.50 -59.39 HU 75 12 316
1891 NA NA 1891-09-20 00:00:00 TS 28.37 -59.93 80 hurdat_atl 1259 1254 O____________O hurdat_atl AL051891 28.10 -60.00 HU 80 1 28.90 -59.80 HU 75 983 11 318
1891 NA NA 03:00:00 TS 28.73 -60.29 1271 1271 P____________P AL051891 28.46 -60.37 HU 80 1 29.26 -60.15 HU 77 9 319
1891 NA NA 06:00:00 TS 29.07 -60.63 80 hurdat_atl 1299 1295 O____________O hurdat_atl AL051891 28.80 -60.70 HU 80 1 29.60 -60.50 HU 80 9 316
1891 NA NA 09:00:00 TS 29.42 -61.04 1314 1311 P____________P AL051891 29.17 -61.11 HU 82 1 29.92 -60.90 HU 80 10 314
1891 NA NA 12:00:00 TS 29.73 -61.43 85 hurdat_atl 1332 1329 O____________O hurdat_atl AL051891 29.50 -61.50 HU 85 2 30.20 -61.30 HU 80 9 312
1891 NA NA 15:00:00 TS 30.00 -61.77 1351 1351 P____________P AL051891 29.76 -61.82 HU 85 2 30.46 -61.68 HU 82 7 312
1891 NA NA 18:00:00 TS 30.23 -62.07 85 hurdat_atl 1365 1359 O____________O hurdat_atl AL051891 30.00 -62.10 HU 85 2 30.70 -62.00 HU 85 7 315
1891 NA NA 21:00:00 TS 30.49 -62.34 1359 1323 P____________P AL051891 30.25 -62.40 HU 85 2 30.96 -62.23 HU 87 7 317
1891 NA NA 1891-09-21 00:00:00 TS 30.73 -62.60 85 hurdat_atl 1323 1291 O____________O hurdat_atl AL051891 30.50 -62.70 HU 85 2 31.20 -62.40 HU 90 7 318
1891 NA NA 03:00:00 TS 30.97 -62.86 1282 1255 P____________P AL051891 30.75 -63.02 HU 85 2 31.41 -62.54 HU 90 6 317
1891 NA NA 06:00:00 TS 31.20 -63.10 85 hurdat_atl 1255 1228 O____________O hurdat_atl AL051891 31.00 -63.30 HU 85 2 31.60 -62.70 HU 90 6 317
1891 NA NA 09:00:00 TS 31.42 -63.34 1228 1193 P____________P AL051891 31.25 -63.52 HU 85 2 31.76 -62.99 HU 90 6 317
1891 NA NA 12:00:00 TS 31.63 -63.57 85 hurdat_atl 1193 1166 O____________O hurdat_atl AL051891 31.50 -63.70 HU 85 2 31.90 -63.30 HU 90 6 320
1891 NA NA 15:00:00 TS 31.86 -63.77 1161 1143 P____________P AL051891 31.75 -63.87 HU 85 2 32.07 -63.57 HU 90 5 324
1891 NA NA 18:00:00 TS 32.07 -63.93 85 hurdat_atl 1143 1130 O____________O hurdat_atl AL051891 32.00 -64.00 HU 85 2 32.20 -63.80 HU 90 4 330
1891 NA NA 21:00:00 TS 32.24 -64.04 1130 1113 P____________P AL051891 32.26 -64.07 HU 85 2 32.21 -63.97 HU 87 4 337
1891 NA NA 1891-09-22 00:00:00 TS 32.40 -64.10 85 hurdat_atl 1113 1108 O____________O hurdat_atl AL051891 32.50 -64.10 HU 85 2 32.20 -64.10 HU 85 3 344
1891 NA NA 03:00:00 TS 32.55 -64.15 1104 1091 P____________P AL051891 32.71 -64.12 HU 85 2 32.25 -64.21 HU 85 3 351
1891 NA NA 06:00:00 TS 32.70 -64.17 85 hurdat_atl 1091 1087 O____________O hurdat_atl AL051891 32.90 -64.10 HU 85 2 32.30 -64.30 HU 85 3 353
1891 NA NA 09:00:00 TS 32.82 -64.20 1087 1079 P____________P AL051891 33.08 -64.09 HU 85 2 32.30 -64.42 HU 85 3 0
1891 NA NA 12:00:00 TS 32.97 -64.17 85 hurdat_atl 1079 1079 O____________O hurdat_atl AL051891 33.30 -64.00 HU 85 2 32.30 -64.50 HU 85 972 4 19
1891 NA NA 15:00:00 TS 33.19 -64.05 1083 1067 P____________P AL051891 33.62 -63.80 HU 85 2 32.32 -64.54 HU 85 6 29
1891 NA NA 18:00:00 TS 33.47 -63.83 85 hurdat_atl 1062 1042 O____________O hurdat_atl AL051891 34.00 -63.50 HU 85 2 32.40 -64.50 HU 85 7 35
1891 NA NA 21:00:00 TS 33.78 -63.55 1047 1028 P____________P AL051891 34.39 -63.13 HU 85 2 32.56 -64.38 HU 85 9 38
1891 NA NA 1891-09-23 00:00:00 TS 34.13 -63.20 85 hurdat_atl 1033 1012 O____________O hurdat_atl AL051891 34.80 -62.70 HU 85 2 32.80 -64.20 HU 85 9 38
1891 NA NA 03:00:00 TS 34.51 -62.85 1012 978 P____________P AL051891 35.21 -62.27 HU 85 2 33.12 -64.01 HU 85 11 38
1891 NA NA 06:00:00 TS 35.03 -62.35 85 hurdat_atl 980 936 O____________O hurdat_atl AL051891 35.60 -61.80 HU 85 2 33.50 -63.80 HU 85 14 41
1891 NA NA 09:00:00 TS 35.54 -61.76 939 904 P____________P AL051891 35.96 -61.30 HU 85 2 33.89 -63.62 HU 85 15 46
1891 NA NA 12:00:00 TS 36.08 -61.00 85 hurdat_atl 901 882 O____________O hurdat_atl AL051891 36.30 -60.70 HU 85 2 34.30 -63.40 HU 85 18 52
1891 NA NA 15:00:00 TS 36.66 -59.95 879 878 P____________P AL051891 36.66 -59.95 HU 85 2 34.66 -63.10 HU 18 59
1891 NA NA 18:00:00 TS 37.00 -59.10 85 hurdat_atl 892 888 O____________P hurdat_atl AL051891 37.00 -59.10 HU 85 2 34.98 -62.72 HU 15 66
1891 NA NA 21:00:00 TS 37.27 -58.21 908 907 P____________P AL051891 37.27 -58.21 HU 85 2 35.29 -62.26 HU 15 71
1891 NA NA 1891-09-24 00:00:00 TS 37.50 -57.30 85 hurdat_atl 912 911 O____________P hurdat_atl AL051891 37.50 -57.30 HU 85 2 35.58 -61.71 HU 15 73
1891 NA NA 03:00:00 TS 37.71 -56.39 920 917 P____________P AL051891 37.71 -56.39 HU 85 2 35.86 -61.09 HU 15 74
1891 NA NA 06:00:00 TS 37.90 -55.50 85 hurdat_atl 934 933 O____________P hurdat_atl AL051891 37.90 -55.50 HU 85 2 36.15 -60.39 HU 14 75
1891 NA NA 09:00:00 TS 38.08 -54.63 948 934 P____________P AL051891 38.08 -54.63 HU 85 2 36.44 -59.61 HU 14 77
1891 NA NA 12:00:00 TS 38.20 -53.80 85 hurdat_atl 934 934 O____________P hurdat_atl AL051891 38.20 -53.80 HU 85 2 36.75 -58.75 HU 13 84
1891 NA NA 15:00:00 TS 38.22 -53.03 934 934 P____________P AL051891 38.22 -53.03 HU 85 2 37.09 -57.81 HU 12 90
1891 NA NA 18:00:00 TS 38.20 -52.30 85 hurdat_atl 937 937 O____________P hurdat_atl AL051891 38.20 -52.30 HU 85 2 37.45 -56.79 HU 12 91
1891 NA NA 21:00:00 TS 38.20 -51.55 944 944 P____________P AL051891 38.20 -51.55 HU 82 1 37.85 -55.69 HU 9 89
1891 NA NA 1891-09-25 00:00:00 TS 38.21 -51.21 80 hurdat_atl 948 940 O____________O hurdat_atl AL051891 38.20 -50.80 HU 80 1 38.30 -54.50 HU 85 7 80
1891 NA NA 03:00:00 TS 38.32 -50.68 945 933 P____________P AL051891 38.20 -50.05 HU 80 1 38.80 -53.22 HU 82 10 73
1891 NA NA 06:00:00 TS 38.50 -50.01 80 hurdat_atl 937 928 O____________O hurdat_atl AL051891 38.20 -49.30 HU 80 1 39.30 -51.90 HU 80 12 71
1891 NA NA 09:00:00 TS 38.71 -49.25 936 932 P____________P AL051891 38.18 -48.55 HU 77 1 39.75 -50.65 HU 80 14 74
1891 NA NA 12:00:00 TS 38.87 -48.33 75 hurdat_atl 944 944 O____________O hurdat_atl AL051891 38.20 -47.80 HU 75 1 40.20 -49.40 HU 80 15 75
1891 NA NA 15:00:00 TS 39.08 -47.40 957 957 P____________P AL051891 38.27 -47.05 HU 70 1 40.70 -48.10 HU 77 15 79
1891 NA NA 18:00:00 TS 39.16 -46.44 65 hurdat_atl 989 989 O____________O hurdat_atl AL051891 38.40 -46.30 HU 65 1 41.20 -46.80 HU 75 14 86
1891 NA NA 21:00:00 TS 39.19 -45.55 1032 1032 P____________P AL051891 38.57 -45.55 HU 60 0 41.66 -45.54 HU 70 13 90
1891 NA NA 1891-09-26 00:00:00 TS 39.17 -44.74 55 hurdat_atl 1072 1072 O____________O hurdat_atl AL051891 38.80 -44.80 TS 55 0 42.10 -44.30 HU 65 12 96
1891 NA NA 03:00:00 TS 39.07 -44.05 1118 1118 P_____________ AL051891 39.07 -44.05 TS 47 0 HU 11 78
1891 NA NA 06:00:00 TS 39.40 -43.30 40 hurdat_atl 1131 1129 O_____________ hurdat_atl AL051891 39.40 -43.30 TS 40 0 13 58
1891 NA NA 09:00:00 TS 39.76 -42.59 1140 1140 P_____________ AL051891 39.76 -42.59 TS 40 0 14 55
1891 NA NA 12:00:00 ET 40.20 -41.80 40 hurdat_atl 1159 1157 O_____________ hurdat_atl AL051891 40.20 -41.80 EX 40 -4 17 55
1891 NA NA 15:00:00 ET 40.73 -40.81 1186 1179 P_____________ AL051891 40.73 -40.81 EX 40 -4 19 55
1891 NA NA 18:00:00 ET 41.30 -39.70 40 hurdat_atl 1220 O_____________ hurdat_atl AL051891 41.30 -39.70 EX 40 -4 20 56